sensor_id;sensor_type;location;lat;lon;timestamp;P1;durP1;ratioP1;P2;durP2;ratioP2
52564;SDS011;38460;53.106;7.004;2022-07-10T00:00:26;4.13;;;1.63;;
52564;SDS011;38460;53.106;7.004;2022-07-10T00:02:53;6.55;;;1.60;;
52564;SDS011;38460;53.106;7.004;2022-07-10T00:05:19;7.82;;;1.67;;
52564;SDS011;38460;53.106;7.004;2022-07-10T00:07:45;6.63;;;1.30;;
52564;SDS011;38460;53.106;7.004;2022-07-10T00:10:12;3.85;;;1.40;;
52564;SDS011;38460;53.106;7.004;2022-07-10T00:12:37;8.60;;;1.75;;
52564;SDS011;38460;53.106;7.004;2022-07-10T00:15:04;8.52;;;1.75;;
52564;SDS011;38460;53.106;7.004;2022-07-10T00:17:30;5.13;;;1.15;;
52564;SDS011;38460;53.106;7.004;2022-07-10T00:19:57;5.88;;;1.58;;
52564;SDS011;38460;53.106;7.004;2022-07-10T00:22:23;9.93;;;1.90;;
52564;SDS011;38460;53.106;7.004;2022-07-10T00:24:49;5.60;;;1.23;;
52564;SDS011;38460;53.106;7.004;2022-07-10T00:27:16;5.00;;;1.73;;
52564;SDS011;38460;53.106;7.004;2022-07-10T00:29:42;5.55;;;1.45;;
52564;SDS011;38460;53.106;7.004;2022-07-10T00:32:08;6.22;;;1.48;;
52564;SDS011;38460;53.106;7.004;2022-07-10T00:34:34;4.32;;;1.08;;
52564;SDS011;38460;53.106;7.004;2022-07-10T00:37:01;7.35;;;1.20;;
52564;SDS011;38460;53.106;7.004;2022-07-10T00:39:27;7.10;;;1.60;;
52564;SDS011;38460;53.106;7.004;2022-07-10T00:41:53;6.05;;;1.60;;
52564;SDS011;38460;53.106;7.004;2022-07-10T00:44:18;3.72;;;1.30;;
52564;SDS011;38460;53.106;7.004;2022-07-10T00:46:44;3.55;;;1.38;;
52564;SDS011;38460;53.106;7.004;2022-07-10T00:49:10;6.50;;;1.85;;
52564;SDS011;38460;53.106;7.004;2022-07-10T00:51:36;4.78;;;1.42;;
52564;SDS011;38460;53.106;7.004;2022-07-10T00:54:02;4.68;;;1.60;;
52564;SDS011;38460;53.106;7.004;2022-07-10T00:56:29;6.05;;;1.42;;
52564;SDS011;38460;53.106;7.004;2022-07-10T00:58:55;5.63;;;1.60;;
52564;SDS011;38460;53.106;7.004;2022-07-10T01:01:22;8.25;;;1.80;;
52564;SDS011;38460;53.106;7.004;2022-07-10T01:03:48;6.13;;;1.45;;
52564;SDS011;38460;53.106;7.004;2022-07-10T01:06:15;8.77;;;1.90;;
52564;SDS011;38460;53.106;7.004;2022-07-10T01:08:41;5.55;;;1.33;;
52564;SDS011;38460;53.106;7.004;2022-07-10T01:11:08;4.43;;;1.60;;
52564;SDS011;38460;53.106;7.004;2022-07-10T01:13:34;5.63;;;1.40;;
52564;SDS011;38460;53.106;7.004;2022-07-10T01:16:01;6.28;;;1.85;;
52564;SDS011;38460;53.106;7.004;2022-07-10T01:18:27;6.47;;;1.92;;
52564;SDS011;38460;53.106;7.004;2022-07-10T01:20:56;3.53;;;1.30;;
52564;SDS011;38460;53.106;7.004;2022-07-10T01:23:22;7.40;;;1.63;;
52564;SDS011;38460;53.106;7.004;2022-07-10T01:25:49;7.35;;;1.50;;
52564;SDS011;38460;53.106;7.004;2022-07-10T01:28:19;7.15;;;2.25;;
52564;SDS011;38460;53.106;7.004;2022-07-10T01:30:46;5.05;;;1.50;;
52564;SDS011;38460;53.106;7.004;2022-07-10T01:33:13;8.13;;;2.08;;
52564;SDS011;38460;53.106;7.004;2022-07-10T01:35:39;6.18;;;1.95;;
52564;SDS011;38460;53.106;7.004;2022-07-10T01:38:05;7.80;;;2.13;;
52564;SDS011;38460;53.106;7.004;2022-07-10T01:40:32;4.78;;;1.40;;
52564;SDS011;38460;53.106;7.004;2022-07-10T01:42:58;6.10;;;1.83;;
52564;SDS011;38460;53.106;7.004;2022-07-10T01:45:23;6.45;;;1.67;;
52564;SDS011;38460;53.106;7.004;2022-07-10T01:47:49;6.65;;;2.13;;
52564;SDS011;38460;53.106;7.004;2022-07-10T01:50:15;8.90;;;2.25;;
52564;SDS011;38460;53.106;7.004;2022-07-10T01:52:41;21.02;;;2.65;;
52564;SDS011;38460;53.106;7.004;2022-07-10T01:55:07;6.60;;;1.52;;
52564;SDS011;38460;53.106;7.004;2022-07-10T01:57:34;6.07;;;1.95;;
52564;SDS011;38460;53.106;7.004;2022-07-10T01:59:59;4.70;;;1.30;;
52564;SDS011;38460;53.106;7.004;2022-07-10T02:02:25;5.55;;;1.58;;
52564;SDS011;38460;53.106;7.004;2022-07-10T02:04:51;6.55;;;1.80;;
52564;SDS011;38460;53.106;7.004;2022-07-10T02:07:17;7.40;;;2.05;;
52564;SDS011;38460;53.106;7.004;2022-07-10T02:09:46;4.20;;;1.52;;
52564;SDS011;38460;53.106;7.004;2022-07-10T02:12:13;5.25;;;1.40;;
52564;SDS011;38460;53.106;7.004;2022-07-10T02:14:40;5.53;;;1.50;;
52564;SDS011;38460;53.106;7.004;2022-07-10T02:17:06;7.30;;;1.70;;
52564;SDS011;38460;53.106;7.004;2022-07-10T02:19:33;6.00;;;1.60;;
52564;SDS011;38460;53.106;7.004;2022-07-10T02:22:00;6.03;;;1.90;;
52564;SDS011;38460;53.106;7.004;2022-07-10T02:24:26;4.60;;;1.45;;
52564;SDS011;38460;53.106;7.004;2022-07-10T02:26:52;8.02;;;2.30;;
52564;SDS011;38460;53.106;7.004;2022-07-10T02:29:18;3.85;;;1.42;;
52564;SDS011;38460;53.106;7.004;2022-07-10T02:31:43;9.82;;;2.17;;
52564;SDS011;38460;53.106;7.004;2022-07-10T02:34:10;8.18;;;1.40;;
52564;SDS011;38460;53.106;7.004;2022-07-10T02:36:36;6.05;;;1.42;;
52564;SDS011;38460;53.106;7.004;2022-07-10T02:39:07;8.20;;;2.08;;
52564;SDS011;38460;53.106;7.004;2022-07-10T02:41:33;3.80;;;1.40;;
52564;SDS011;38460;53.106;7.004;2022-07-10T02:44:01;6.32;;;1.80;;
52564;SDS011;38460;53.106;7.004;2022-07-10T02:46:27;4.93;;;1.60;;
52564;SDS011;38460;53.106;7.004;2022-07-10T02:48:53;4.50;;;1.23;;
52564;SDS011;38460;53.106;7.004;2022-07-10T02:51:18;7.38;;;1.83;;
52564;SDS011;38460;53.106;7.004;2022-07-10T02:53:44;4.68;;;1.63;;
52564;SDS011;38460;53.106;7.004;2022-07-10T02:56:10;4.25;;;1.50;;
52564;SDS011;38460;53.106;7.004;2022-07-10T02:58:37;5.80;;;1.92;;
52564;SDS011;38460;53.106;7.004;2022-07-10T03:01:03;5.97;;;1.90;;
52564;SDS011;38460;53.106;7.004;2022-07-10T03:03:28;8.73;;;1.48;;
52564;SDS011;38460;53.106;7.004;2022-07-10T03:05:54;5.30;;;1.60;;
52564;SDS011;38460;53.106;7.004;2022-07-10T03:08:20;8.75;;;2.00;;
52564;SDS011;38460;53.106;7.004;2022-07-10T03:10:45;7.80;;;2.03;;
52564;SDS011;38460;53.106;7.004;2022-07-10T03:13:11;8.52;;;1.83;;
52564;SDS011;38460;53.106;7.004;2022-07-10T03:15:37;10.43;;;1.63;;
52564;SDS011;38460;53.106;7.004;2022-07-10T03:18:03;8.15;;;2.35;;
52564;SDS011;38460;53.106;7.004;2022-07-10T03:20:28;3.58;;;1.70;;
52564;SDS011;38460;53.106;7.004;2022-07-10T03:22:54;8.77;;;1.90;;
52564;SDS011;38460;53.106;7.004;2022-07-10T03:25:20;4.57;;;1.55;;
52564;SDS011;38460;53.106;7.004;2022-07-10T03:27:45;9.43;;;2.90;;
52564;SDS011;38460;53.106;7.004;2022-07-10T03:30:11;6.28;;;1.63;;
52564;SDS011;38460;53.106;7.004;2022-07-10T03:32:37;7.45;;;1.58;;
52564;SDS011;38460;53.106;7.004;2022-07-10T03:35:03;4.57;;;1.70;;
52564;SDS011;38460;53.106;7.004;2022-07-10T03:37:29;4.93;;;2.45;;
52564;SDS011;38460;53.106;7.004;2022-07-10T03:39:54;4.50;;;2.13;;
52564;SDS011;38460;53.106;7.004;2022-07-10T03:42:20;6.32;;;1.90;;
52564;SDS011;38460;53.106;7.004;2022-07-10T03:44:46;8.30;;;1.63;;
52564;SDS011;38460;53.106;7.004;2022-07-10T03:47:11;5.47;;;1.70;;
52564;SDS011;38460;53.106;7.004;2022-07-10T03:49:37;3.88;;;1.58;;
52564;SDS011;38460;53.106;7.004;2022-07-10T03:52:04;7.85;;;1.42;;
52564;SDS011;38460;53.106;7.004;2022-07-10T03:54:30;7.45;;;2.17;;
52564;SDS011;38460;53.106;7.004;2022-07-10T03:56:57;4.05;;;1.40;;
52564;SDS011;38460;53.106;7.004;2022-07-10T03:59:41;6.78;;;1.50;;
52564;SDS011;38460;53.106;7.004;2022-07-10T04:02:07;10.40;;;1.58;;
52564;SDS011;38460;53.106;7.004;2022-07-10T04:04:33;5.30;;;1.63;;
52564;SDS011;38460;53.106;7.004;2022-07-10T04:06:59;5.15;;;1.75;;
52564;SDS011;38460;53.106;7.004;2022-07-10T04:09:25;5.07;;;1.63;;
52564;SDS011;38460;53.106;7.004;2022-07-10T04:11:51;7.10;;;1.85;;
52564;SDS011;38460;53.106;7.004;2022-07-10T04:14:16;6.35;;;1.75;;
52564;SDS011;38460;53.106;7.004;2022-07-10T04:16:42;6.07;;;1.85;;
52564;SDS011;38460;53.106;7.004;2022-07-10T04:19:08;4.70;;;1.40;;
52564;SDS011;38460;53.106;7.004;2022-07-10T04:21:34;6.07;;;1.70;;
52564;SDS011;38460;53.106;7.004;2022-07-10T04:24:00;6.70;;;1.70;;
52564;SDS011;38460;53.106;7.004;2022-07-10T04:26:25;6.70;;;1.88;;
52564;SDS011;38460;53.106;7.004;2022-07-10T04:28:51;6.38;;;1.80;;
52564;SDS011;38460;53.106;7.004;2022-07-10T04:31:17;7.25;;;1.60;;
52564;SDS011;38460;53.106;7.004;2022-07-10T04:33:42;4.80;;;1.70;;
52564;SDS011;38460;53.106;7.004;2022-07-10T04:36:08;5.75;;;1.67;;
52564;SDS011;38460;53.106;7.004;2022-07-10T04:38:34;5.55;;;2.00;;
52564;SDS011;38460;53.106;7.004;2022-07-10T04:41:00;7.40;;;2.00;;
52564;SDS011;38460;53.106;7.004;2022-07-10T04:43:26;3.40;;;1.42;;
52564;SDS011;38460;53.106;7.004;2022-07-10T04:45:51;8.20;;;2.05;;
52564;SDS011;38460;53.106;7.004;2022-07-10T04:48:17;9.50;;;1.80;;
52564;SDS011;38460;53.106;7.004;2022-07-10T04:50:43;6.30;;;1.80;;
52564;SDS011;38460;53.106;7.004;2022-07-10T04:53:09;4.10;;;1.80;;
52564;SDS011;38460;53.106;7.004;2022-07-10T04:55:34;6.55;;;1.85;;
52564;SDS011;38460;53.106;7.004;2022-07-10T04:58:00;4.95;;;1.52;;
52564;SDS011;38460;53.106;7.004;2022-07-10T05:00:26;6.47;;;2.00;;
52564;SDS011;38460;53.106;7.004;2022-07-10T05:02:51;5.70;;;2.00;;
52564;SDS011;38460;53.106;7.004;2022-07-10T05:05:17;8.10;;;2.33;;
52564;SDS011;38460;53.106;7.004;2022-07-10T05:07:43;3.95;;;1.50;;
52564;SDS011;38460;53.106;7.004;2022-07-10T05:10:09;9.60;;;1.83;;
52564;SDS011;38460;53.106;7.004;2022-07-10T05:12:34;4.53;;;1.75;;
52564;SDS011;38460;53.106;7.004;2022-07-10T05:15:00;6.47;;;1.85;;
52564;SDS011;38460;53.106;7.004;2022-07-10T05:17:27;7.18;;;2.20;;
52564;SDS011;38460;53.106;7.004;2022-07-10T05:19:54;6.43;;;2.08;;
52564;SDS011;38460;53.106;7.004;2022-07-10T05:22:21;6.60;;;1.88;;
52564;SDS011;38460;53.106;7.004;2022-07-10T05:24:48;7.05;;;2.10;;
52564;SDS011;38460;53.106;7.004;2022-07-10T05:27:14;3.85;;;1.55;;
52564;SDS011;38460;53.106;7.004;2022-07-10T05:29:43;6.97;;;1.58;;
52564;SDS011;38460;53.106;7.004;2022-07-10T05:32:08;8.32;;;2.35;;
52564;SDS011;38460;53.106;7.004;2022-07-10T05:34:34;7.55;;;2.30;;
52564;SDS011;38460;53.106;7.004;2022-07-10T05:37:00;5.82;;;1.52;;
52564;SDS011;38460;53.106;7.004;2022-07-10T05:39:26;7.75;;;1.75;;
52564;SDS011;38460;53.106;7.004;2022-07-10T05:41:52;5.10;;;1.70;;
52564;SDS011;38460;53.106;7.004;2022-07-10T05:44:19;5.70;;;1.67;;
52564;SDS011;38460;53.106;7.004;2022-07-10T05:46:45;6.75;;;1.90;;
52564;SDS011;38460;53.106;7.004;2022-07-10T05:49:11;10.82;;;2.22;;
52564;SDS011;38460;53.106;7.004;2022-07-10T05:51:37;7.50;;;1.77;;
52564;SDS011;38460;53.106;7.004;2022-07-10T05:54:03;7.18;;;2.22;;
52564;SDS011;38460;53.106;7.004;2022-07-10T05:56:29;4.68;;;2.10;;
52564;SDS011;38460;53.106;7.004;2022-07-10T05:58:55;9.02;;;2.42;;
52564;SDS011;38460;53.106;7.004;2022-07-10T06:01:21;7.20;;;2.13;;
52564;SDS011;38460;53.106;7.004;2022-07-10T06:03:48;17.13;;;2.03;;
52564;SDS011;38460;53.106;7.004;2022-07-10T06:06:14;7.82;;;1.92;;
52564;SDS011;38460;53.106;7.004;2022-07-10T06:08:42;8.73;;;1.88;;
52564;SDS011;38460;53.106;7.004;2022-07-10T06:11:09;8.02;;;1.60;;
52564;SDS011;38460;53.106;7.004;2022-07-10T06:13:36;5.60;;;1.80;;
52564;SDS011;38460;53.106;7.004;2022-07-10T06:16:02;5.68;;;1.75;;
52564;SDS011;38460;53.106;7.004;2022-07-10T06:18:29;7.60;;;1.98;;
52564;SDS011;38460;53.106;7.004;2022-07-10T06:20:54;5.90;;;1.35;;
52564;SDS011;38460;53.106;7.004;2022-07-10T06:23:20;8.45;;;2.53;;
52564;SDS011;38460;53.106;7.004;2022-07-10T06:25:46;9.35;;;2.47;;
52564;SDS011;38460;53.106;7.004;2022-07-10T06:28:14;6.47;;;1.80;;
52564;SDS011;38460;53.106;7.004;2022-07-10T06:30:43;5.95;;;1.50;;
52564;SDS011;38460;53.106;7.004;2022-07-10T06:33:11;4.95;;;1.77;;
52564;SDS011;38460;53.106;7.004;2022-07-10T06:35:37;8.30;;;2.03;;
52564;SDS011;38460;53.106;7.004;2022-07-10T06:38:03;6.57;;;1.63;;
52564;SDS011;38460;53.106;7.004;2022-07-10T06:40:29;7.28;;;2.17;;
52564;SDS011;38460;53.106;7.004;2022-07-10T06:42:55;5.95;;;1.80;;
52564;SDS011;38460;53.106;7.004;2022-07-10T06:45:21;4.97;;;1.75;;
52564;SDS011;38460;53.106;7.004;2022-07-10T06:47:47;6.45;;;1.75;;
52564;SDS011;38460;53.106;7.004;2022-07-10T06:50:22;9.60;;;1.98;;
52564;SDS011;38460;53.106;7.004;2022-07-10T06:52:59;6.05;;;1.77;;
52564;SDS011;38460;53.106;7.004;2022-07-10T06:55:26;5.10;;;1.50;;
52564;SDS011;38460;53.106;7.004;2022-07-10T06:57:52;6.40;;;1.90;;
52564;SDS011;38460;53.106;7.004;2022-07-10T07:00:18;6.88;;;1.60;;
52564;SDS011;38460;53.106;7.004;2022-07-10T07:02:44;6.72;;;1.70;;
52564;SDS011;38460;53.106;7.004;2022-07-10T07:05:10;3.38;;;1.30;;
52564;SDS011;38460;53.106;7.004;2022-07-10T07:07:36;6.03;;;1.55;;
52564;SDS011;38460;53.106;7.004;2022-07-10T07:10:03;4.50;;;1.30;;
52564;SDS011;38460;53.106;7.004;2022-07-10T07:12:29;4.57;;;1.52;;
52564;SDS011;38460;53.106;7.004;2022-07-10T07:14:55;6.40;;;1.38;;
52564;SDS011;38460;53.106;7.004;2022-07-10T07:17:21;5.30;;;1.50;;
52564;SDS011;38460;53.106;7.004;2022-07-10T07:19:48;4.15;;;1.20;;
52564;SDS011;38460;53.106;7.004;2022-07-10T07:22:33;6.93;;;2.20;;
52564;SDS011;38460;53.106;7.004;2022-07-10T07:25:17;4.85;;;1.73;;
52564;SDS011;38460;53.106;7.004;2022-07-10T07:27:43;4.57;;;1.70;;
52564;SDS011;38460;53.106;7.004;2022-07-10T07:30:09;7.55;;;1.80;;
52564;SDS011;38460;53.106;7.004;2022-07-10T07:32:37;7.07;;;1.77;;
52564;SDS011;38460;53.106;7.004;2022-07-10T07:35:03;4.32;;;1.60;;
52564;SDS011;38460;53.106;7.004;2022-07-10T07:40:11;4.82;;;1.50;;
52564;SDS011;38460;53.106;7.004;2022-07-10T07:42:39;7.40;;;1.63;;
52564;SDS011;38460;53.106;7.004;2022-07-10T07:45:06;4.50;;;1.77;;
52564;SDS011;38460;53.106;7.004;2022-07-10T07:47:41;5.82;;;1.58;;
52564;SDS011;38460;53.106;7.004;2022-07-10T07:50:12;4.00;;;1.25;;
52564;SDS011;38460;53.106;7.004;2022-07-10T07:52:39;6.00;;;1.60;;
52564;SDS011;38460;53.106;7.004;2022-07-10T07:55:05;4.72;;;1.35;;
52564;SDS011;38460;53.106;7.004;2022-07-10T07:57:31;5.32;;;1.27;;
52564;SDS011;38460;53.106;7.004;2022-07-10T07:59:56;6.90;;;1.38;;
52564;SDS011;38460;53.106;7.004;2022-07-10T08:02:22;3.75;;;1.20;;
52564;SDS011;38460;53.106;7.004;2022-07-10T08:04:48;8.18;;;1.63;;
52564;SDS011;38460;53.106;7.004;2022-07-10T08:07:14;9.55;;;1.90;;
52564;SDS011;38460;53.106;7.004;2022-07-10T08:09:39;3.60;;;1.50;;
52564;SDS011;38460;53.106;7.004;2022-07-10T08:12:05;4.32;;;1.48;;
52564;SDS011;38460;53.106;7.004;2022-07-10T08:14:31;4.18;;;1.20;;
52564;SDS011;38460;53.106;7.004;2022-07-10T08:16:57;2.60;;;1.20;;
52564;SDS011;38460;53.106;7.004;2022-07-10T08:19:23;5.22;;;1.67;;
52564;SDS011;38460;53.106;7.004;2022-07-10T08:21:49;3.80;;;1.30;;
52564;SDS011;38460;53.106;7.004;2022-07-10T08:24:14;5.35;;;1.30;;
52564;SDS011;38460;53.106;7.004;2022-07-10T08:26:40;4.45;;;1.20;;
52564;SDS011;38460;53.106;7.004;2022-07-10T08:29:06;5.82;;;1.15;;
52564;SDS011;38460;53.106;7.004;2022-07-10T08:31:32;6.15;;;1.80;;
52564;SDS011;38460;53.106;7.004;2022-07-10T08:33:58;2.72;;;1.02;;
52564;SDS011;38460;53.106;7.004;2022-07-10T08:36:25;5.70;;;1.20;;
52564;SDS011;38460;53.106;7.004;2022-07-10T08:38:52;4.65;;;1.30;;
52564;SDS011;38460;53.106;7.004;2022-07-10T08:41:22;3.08;;;1.67;;
52564;SDS011;38460;53.106;7.004;2022-07-10T08:43:50;4.35;;;1.30;;
52564;SDS011;38460;53.106;7.004;2022-07-10T08:46:15;6.28;;;1.67;;
52564;SDS011;38460;53.106;7.004;2022-07-10T08:48:43;4.03;;;1.15;;
52564;SDS011;38460;53.106;7.004;2022-07-10T08:51:13;4.82;;;0.90;;
52564;SDS011;38460;53.106;7.004;2022-07-10T08:53:51;3.60;;;1.25;;
52564;SDS011;38460;53.106;7.004;2022-07-10T08:56:18;4.05;;;1.15;;
52564;SDS011;38460;53.106;7.004;2022-07-10T08:58:44;6.25;;;1.10;;
52564;SDS011;38460;53.106;7.004;2022-07-10T09:01:10;6.00;;;1.02;;
52564;SDS011;38460;53.106;7.004;2022-07-10T09:03:35;4.93;;;1.15;;
52564;SDS011;38460;53.106;7.004;2022-07-10T09:06:04;4.43;;;1.02;;
52564;SDS011;38460;53.106;7.004;2022-07-10T09:08:30;6.35;;;1.00;;
52564;SDS011;38460;53.106;7.004;2022-07-10T09:11:15;2.47;;;0.90;;
52564;SDS011;38460;53.106;7.004;2022-07-10T09:13:52;3.33;;;1.17;;
52564;SDS011;38460;53.106;7.004;2022-07-10T09:16:32;4.90;;;1.30;;
52564;SDS011;38460;53.106;7.004;2022-07-10T09:21:52;3.30;;;1.00;;
52564;SDS011;38460;53.106;7.004;2022-07-10T09:24:40;2.63;;;0.68;;
52564;SDS011;38460;53.106;7.004;2022-07-10T09:27:09;2.08;;;0.80;;
52564;SDS011;38460;53.106;7.004;2022-07-10T09:29:55;2.95;;;0.73;;
52564;SDS011;38460;53.106;7.004;2022-07-10T09:32:23;2.42;;;0.50;;
52564;SDS011;38460;53.106;7.004;2022-07-10T09:34:50;2.75;;;0.80;;
52564;SDS011;38460;53.106;7.004;2022-07-10T09:37:37;2.08;;;0.70;;
52564;SDS011;38460;53.106;7.004;2022-07-10T09:40:05;2.20;;;0.50;;
52564;SDS011;38460;53.106;7.004;2022-07-10T09:47:41;2.72;;;0.75;;
52564;SDS011;38460;53.106;7.004;2022-07-10T09:52:57;1.70;;;0.75;;
52564;SDS011;38460;53.106;7.004;2022-07-10T09:55:25;4.72;;;0.98;;
52564;SDS011;38460;53.106;7.004;2022-07-10T09:57:56;3.22;;;0.65;;
52564;SDS011;38460;53.106;7.004;2022-07-10T10:05:34;2.67;;;0.70;;
52564;SDS011;38460;53.106;7.004;2022-07-10T10:08:30;3.15;;;0.80;;
52564;SDS011;38460;53.106;7.004;2022-07-10T10:11:03;3.45;;;0.98;;
52564;SDS011;38460;53.106;7.004;2022-07-10T10:13:32;2.47;;;1.17;;
52564;SDS011;38460;53.106;7.004;2022-07-10T10:15:59;3.58;;;1.00;;
52564;SDS011;38460;53.106;7.004;2022-07-10T10:18:27;4.30;;;0.80;;
52564;SDS011;38460;53.106;7.004;2022-07-10T10:20:54;3.25;;;1.23;;
52564;SDS011;38460;53.106;7.004;2022-07-10T10:23:22;2.47;;;1.10;;
52564;SDS011;38460;53.106;7.004;2022-07-10T10:25:50;3.20;;;0.90;;
52564;SDS011;38460;53.106;7.004;2022-07-10T10:28:20;4.15;;;1.00;;
52564;SDS011;38460;53.106;7.004;2022-07-10T10:30:57;7.10;;;1.60;;
52564;SDS011;38460;53.106;7.004;2022-07-10T10:36:08;1.83;;;1.10;;
52564;SDS011;38460;53.106;7.004;2022-07-10T10:46:34;2.45;;;1.20;;
52564;SDS011;38460;53.106;7.004;2022-07-10T10:49:06;2.63;;;1.08;;
52564;SDS011;38460;53.106;7.004;2022-07-10T10:57:22;4.07;;;1.15;;
52564;SDS011;38460;53.106;7.004;2022-07-10T11:00:09;3.75;;;1.20;;
52564;SDS011;38460;53.106;7.004;2022-07-10T11:02:39;2.22;;;0.90;;
52564;SDS011;38460;53.106;7.004;2022-07-10T11:07:58;2.58;;;0.80;;
52564;SDS011;38460;53.106;7.004;2022-07-10T11:10:29;2.10;;;0.85;;
52564;SDS011;38460;53.106;7.004;2022-07-10T11:13:01;1.70;;;0.70;;
52564;SDS011;38460;53.106;7.004;2022-07-10T11:15:28;2.10;;;0.70;;
52564;SDS011;38460;53.106;7.004;2022-07-10T11:18:05;1.48;;;0.65;;
52564;SDS011;38460;53.106;7.004;2022-07-10T11:20:36;1.52;;;0.63;;
52564;SDS011;38460;53.106;7.004;2022-07-10T11:26:02;1.27;;;0.80;;
52564;SDS011;38460;53.106;7.004;2022-07-10T11:31:07;4.25;;;1.20;;
52564;SDS011;38460;53.106;7.004;2022-07-10T11:33:43;3.20;;;1.13;;
52564;SDS011;38460;53.106;7.004;2022-07-10T11:36:12;4.70;;;1.63;;
52564;SDS011;38460;53.106;7.004;2022-07-10T11:38:42;2.78;;;1.30;;
52564;SDS011;38460;53.106;7.004;2022-07-10T11:41:19;3.30;;;1.20;;
52564;SDS011;38460;53.106;7.004;2022-07-10T11:43:53;2.33;;;1.05;;
52564;SDS011;38460;53.106;7.004;2022-07-10T11:46:20;1.92;;;1.10;;
52564;SDS011;38460;53.106;7.004;2022-07-10T11:48:48;2.63;;;1.48;;
52564;SDS011;38460;53.106;7.004;2022-07-10T11:51:36;3.67;;;1.38;;
52564;SDS011;38460;53.106;7.004;2022-07-10T11:54:03;3.67;;;1.45;;
52564;SDS011;38460;53.106;7.004;2022-07-10T11:56:48;2.67;;;1.30;;
52564;SDS011;38460;53.106;7.004;2022-07-10T11:59:17;3.63;;;1.73;;
52564;SDS011;38460;53.106;7.004;2022-07-10T12:01:48;4.47;;;1.95;;
52564;SDS011;38460;53.106;7.004;2022-07-10T12:04:17;4.22;;;1.73;;
52564;SDS011;38460;53.106;7.004;2022-07-10T12:06:51;5.72;;;2.28;;
52564;SDS011;38460;53.106;7.004;2022-07-10T12:09:21;7.43;;;1.73;;
52564;SDS011;38460;53.106;7.004;2022-07-10T12:12:01;3.65;;;1.77;;
52564;SDS011;38460;53.106;7.004;2022-07-10T12:14:27;6.60;;;2.10;;
52564;SDS011;38460;53.106;7.004;2022-07-10T12:16:54;4.97;;;1.90;;
52564;SDS011;38460;53.106;7.004;2022-07-10T12:19:25;3.42;;;2.10;;
52564;SDS011;38460;53.106;7.004;2022-07-10T12:21:52;3.85;;;1.52;;
52564;SDS011;38460;53.106;7.004;2022-07-10T12:24:19;4.07;;;2.10;;
52564;SDS011;38460;53.106;7.004;2022-07-10T12:26:46;2.38;;;1.60;;
52564;SDS011;38460;53.106;7.004;2022-07-10T12:29:20;3.40;;;1.30;;
52564;SDS011;38460;53.106;7.004;2022-07-10T12:31:47;3.42;;;1.50;;
52564;SDS011;38460;53.106;7.004;2022-07-10T12:34:14;2.42;;;1.58;;
52564;SDS011;38460;53.106;7.004;2022-07-10T12:36:41;4.57;;;2.00;;
52564;SDS011;38460;53.106;7.004;2022-07-10T12:39:08;4.82;;;1.90;;
52564;SDS011;38460;53.106;7.004;2022-07-10T12:41:35;5.38;;;2.00;;
52564;SDS011;38460;53.106;7.004;2022-07-10T12:47:03;3.88;;;1.90;;
52564;SDS011;38460;53.106;7.004;2022-07-10T12:52:21;5.03;;;1.95;;
52564;SDS011;38460;53.106;7.004;2022-07-10T12:54:47;3.67;;;2.22;;
52564;SDS011;38460;53.106;7.004;2022-07-10T12:57:13;5.78;;;1.80;;
52564;SDS011;38460;53.106;7.004;2022-07-10T12:59:39;4.32;;;2.35;;
52564;SDS011;38460;53.106;7.004;2022-07-10T13:02:20;6.32;;;1.92;;
52564;SDS011;38460;53.106;7.004;2022-07-10T13:04:53;5.38;;;2.20;;
52564;SDS011;38460;53.106;7.004;2022-07-10T13:07:29;5.60;;;1.85;;
52564;SDS011;38460;53.106;7.004;2022-07-10T13:10:00;6.78;;;2.22;;
52564;SDS011;38460;53.106;7.004;2022-07-10T13:12:30;5.68;;;1.70;;
52564;SDS011;38460;53.106;7.004;2022-07-10T13:14:56;5.55;;;1.90;;
52564;SDS011;38460;53.106;7.004;2022-07-10T13:17:22;4.55;;;1.73;;
52564;SDS011;38460;53.106;7.004;2022-07-10T13:19:48;3.70;;;1.45;;
52564;SDS011;38460;53.106;7.004;2022-07-10T13:22:16;4.15;;;1.48;;
52564;SDS011;38460;53.106;7.004;2022-07-10T13:24:42;3.97;;;1.40;;
52564;SDS011;38460;53.106;7.004;2022-07-10T13:27:07;8.40;;;1.77;;
52564;SDS011;38460;53.106;7.004;2022-07-10T13:29:33;3.50;;;1.73;;
52564;SDS011;38460;53.106;7.004;2022-07-10T13:31:59;2.83;;;1.45;;
52564;SDS011;38460;53.106;7.004;2022-07-10T13:34:25;4.25;;;1.90;;
52564;SDS011;38460;53.106;7.004;2022-07-10T13:36:51;4.45;;;1.90;;
52564;SDS011;38460;53.106;7.004;2022-07-10T13:39:19;3.13;;;1.75;;
52564;SDS011;38460;53.106;7.004;2022-07-10T13:41:44;4.82;;;1.65;;
52564;SDS011;38460;53.106;7.004;2022-07-10T13:44:10;2.88;;;1.40;;
52564;SDS011;38460;53.106;7.004;2022-07-10T13:46:36;6.95;;;1.88;;
52564;SDS011;38460;53.106;7.004;2022-07-10T13:49:04;4.60;;;1.55;;
52564;SDS011;38460;53.106;7.004;2022-07-10T13:51:30;4.63;;;1.60;;
52564;SDS011;38460;53.106;7.004;2022-07-10T13:53:56;4.85;;;1.80;;
52564;SDS011;38460;53.106;7.004;2022-07-10T13:56:22;4.97;;;1.70;;
52564;SDS011;38460;53.106;7.004;2022-07-10T13:58:49;4.65;;;1.85;;
52564;SDS011;38460;53.106;7.004;2022-07-10T14:01:14;4.55;;;1.60;;
52564;SDS011;38460;53.106;7.004;2022-07-10T14:03:40;5.60;;;2.15;;
52564;SDS011;38460;53.106;7.004;2022-07-10T14:06:06;4.00;;;1.77;;
52564;SDS011;38460;53.106;7.004;2022-07-10T14:08:32;5.20;;;1.80;;
52564;SDS011;38460;53.106;7.004;2022-07-10T14:10:58;4.85;;;1.88;;
52564;SDS011;38460;53.106;7.004;2022-07-10T14:13:23;4.57;;;2.40;;
52564;SDS011;38460;53.106;7.004;2022-07-10T14:15:49;3.58;;;1.85;;
52564;SDS011;38460;53.106;7.004;2022-07-10T14:18:15;6.65;;;2.10;;
52564;SDS011;38460;53.106;7.004;2022-07-10T14:21:00;6.03;;;2.15;;
52564;SDS011;38460;53.106;7.004;2022-07-10T14:23:30;5.25;;;2.20;;
52564;SDS011;38460;53.106;7.004;2022-07-10T14:25:57;5.25;;;1.90;;
52564;SDS011;38460;53.106;7.004;2022-07-10T14:28:23;4.68;;;1.60;;
52564;SDS011;38460;53.106;7.004;2022-07-10T14:30:49;2.95;;;1.60;;
52564;SDS011;38460;53.106;7.004;2022-07-10T14:33:15;4.43;;;1.88;;
52564;SDS011;38460;53.106;7.004;2022-07-10T14:35:42;3.95;;;2.00;;
52564;SDS011;38460;53.106;7.004;2022-07-10T14:38:07;3.75;;;1.70;;
52564;SDS011;38460;53.106;7.004;2022-07-10T14:40:33;3.45;;;1.52;;
52564;SDS011;38460;53.106;7.004;2022-07-10T14:42:59;4.25;;;1.73;;
52564;SDS011;38460;53.106;7.004;2022-07-10T14:45:25;3.92;;;1.70;;
52564;SDS011;38460;53.106;7.004;2022-07-10T14:47:50;3.90;;;1.50;;
52564;SDS011;38460;53.106;7.004;2022-07-10T14:50:16;3.88;;;1.83;;
52564;SDS011;38460;53.106;7.004;2022-07-10T14:52:43;6.47;;;2.42;;
52564;SDS011;38460;53.106;7.004;2022-07-10T14:55:09;3.88;;;1.90;;
52564;SDS011;38460;53.106;7.004;2022-07-10T14:57:35;5.60;;;1.80;;
52564;SDS011;38460;53.106;7.004;2022-07-10T15:00:01;3.67;;;1.67;;
52564;SDS011;38460;53.106;7.004;2022-07-10T15:02:27;5.80;;;1.92;;
52564;SDS011;38460;53.106;7.004;2022-07-10T15:04:53;3.10;;;1.60;;
52564;SDS011;38460;53.106;7.004;2022-07-10T15:07:18;3.83;;;1.70;;
52564;SDS011;38460;53.106;7.004;2022-07-10T15:09:44;3.67;;;1.58;;
52564;SDS011;38460;53.106;7.004;2022-07-10T15:12:10;4.35;;;1.90;;
52564;SDS011;38460;53.106;7.004;2022-07-10T15:14:36;5.50;;;1.98;;
52564;SDS011;38460;53.106;7.004;2022-07-10T15:17:02;9.57;;;2.08;;
52564;SDS011;38460;53.106;7.004;2022-07-10T15:19:28;4.75;;;1.75;;
52564;SDS011;38460;53.106;7.004;2022-07-10T15:21:54;4.20;;;1.80;;
52564;SDS011;38460;53.106;7.004;2022-07-10T15:24:20;4.93;;;2.00;;
52564;SDS011;38460;53.106;7.004;2022-07-10T15:26:46;4.78;;;2.00;;
52564;SDS011;38460;53.106;7.004;2022-07-10T15:29:12;5.68;;;1.85;;
52564;SDS011;38460;53.106;7.004;2022-07-10T15:31:38;4.28;;;1.88;;
52564;SDS011;38460;53.106;7.004;2022-07-10T15:34:08;5.50;;;2.42;;
52564;SDS011;38460;53.106;7.004;2022-07-10T15:36:37;4.72;;;1.75;;
52564;SDS011;38460;53.106;7.004;2022-07-10T15:39:02;5.88;;;1.85;;